sensor_id;sensor_type;location;lat;lon;timestamp;P1;durP1;ratioP1;P2;durP2;ratioP2
78406;SDS011;67692;51.074;-1.790;2023-08-21T00:02:11;6.20;;;1.75;;
78406;SDS011;67692;51.074;-1.790;2023-08-21T00:04:38;12.40;;;2.38;;
78406;SDS011;67692;51.074;-1.790;2023-08-21T00:07:04;5.57;;;1.55;;
78406;SDS011;67692;51.074;-1.790;2023-08-21T00:09:31;9.73;;;1.80;;
78406;SDS011;67692;51.074;-1.790;2023-08-21T00:11:58;9.88;;;1.80;;
78406;SDS011;67692;51.074;-1.790;2023-08-21T00:14:26;8.52;;;2.22;;
78406;SDS011;67692;51.074;-1.790;2023-08-21T00:16:53;7.00;;;1.58;;
78406;SDS011;67692;51.074;-1.790;2023-08-21T00:19:19;6.38;;;1.70;;
78406;SDS011;67692;51.074;-1.790;2023-08-21T00:21:46;4.97;;;1.65;;
78406;SDS011;67692;51.074;-1.790;2023-08-21T00:24:13;8.00;;;1.80;;
78406;SDS011;67692;51.074;-1.790;2023-08-21T00:26:39;8.38;;;1.60;;
78406;SDS011;67692;51.074;-1.790;2023-08-21T00:29:06;4.57;;;1.55;;
78406;SDS011;67692;51.074;-1.790;2023-08-21T00:31:34;9.23;;;1.30;;
78406;SDS011;67692;51.074;-1.790;2023-08-21T00:34:00;5.72;;;1.60;;
78406;SDS011;67692;51.074;-1.790;2023-08-21T00:36:27;9.23;;;1.58;;
78406;SDS011;67692;51.074;-1.790;2023-08-21T00:38:53;14.35;;;2.55;;
78406;SDS011;67692;51.074;-1.790;2023-08-21T00:41:20;9.57;;;1.95;;
78406;SDS011;67692;51.074;-1.790;2023-08-21T00:43:47;7.35;;;1.60;;
78406;SDS011;67692;51.074;-1.790;2023-08-21T00:46:13;10.05;;;1.90;;
78406;SDS011;67692;51.074;-1.790;2023-08-21T00:48:42;6.65;;;1.67;;
78406;SDS011;67692;51.074;-1.790;2023-08-21T00:51:10;10.90;;;1.80;;
78406;SDS011;67692;51.074;-1.790;2023-08-21T00:53:40;6.45;;;1.95;;
78406;SDS011;67692;51.074;-1.790;2023-08-21T00:56:07;6.07;;;1.50;;
78406;SDS011;67692;51.074;-1.790;2023-08-21T00:58:34;8.65;;;1.42;;
78406;SDS011;67692;51.074;-1.790;2023-08-21T01:01:01;10.15;;;1.65;;
78406;SDS011;67692;51.074;-1.790;2023-08-21T01:03:29;12.82;;;1.65;;
78406;SDS011;67692;51.074;-1.790;2023-08-21T01:05:57;9.77;;;1.80;;
78406;SDS011;67692;51.074;-1.790;2023-08-21T01:08:25;6.78;;;1.38;;
78406;SDS011;67692;51.074;-1.790;2023-08-21T01:10:56;7.80;;;1.70;;
78406;SDS011;67692;51.074;-1.790;2023-08-21T01:13:34;9.13;;;2.08;;
78406;SDS011;67692;51.074;-1.790;2023-08-21T01:16:10;13.57;;;1.85;;
78406;SDS011;67692;51.074;-1.790;2023-08-21T01:18:39;11.73;;;1.63;;
78406;SDS011;67692;51.074;-1.790;2023-08-21T01:21:09;10.60;;;1.77;;
78406;SDS011;67692;51.074;-1.790;2023-08-21T01:23:38;7.97;;;1.73;;
78406;SDS011;67692;51.074;-1.790;2023-08-21T01:26:06;11.60;;;1.98;;
78406;SDS011;67692;51.074;-1.790;2023-08-21T01:28:33;8.77;;;1.50;;
78406;SDS011;67692;51.074;-1.790;2023-08-21T01:31:02;8.45;;;2.25;;
78406;SDS011;67692;51.074;-1.790;2023-08-21T01:33:33;7.97;;;2.95;;
78406;SDS011;67692;51.074;-1.790;2023-08-21T01:36:03;11.07;;;1.75;;
78406;SDS011;67692;51.074;-1.790;2023-08-21T01:38:31;8.10;;;1.77;;
78406;SDS011;67692;51.074;-1.790;2023-08-21T01:41:01;15.60;;;2.58;;
78406;SDS011;67692;51.074;-1.790;2023-08-21T01:43:28;8.63;;;1.90;;
78406;SDS011;67692;51.074;-1.790;2023-08-21T01:45:55;10.50;;;2.10;;
78406;SDS011;67692;51.074;-1.790;2023-08-21T01:48:21;8.80;;;1.75;;
78406;SDS011;67692;51.074;-1.790;2023-08-21T01:50:48;9.38;;;2.35;;
78406;SDS011;67692;51.074;-1.790;2023-08-21T01:53:15;8.90;;;1.90;;
78406;SDS011;67692;51.074;-1.790;2023-08-21T01:55:41;9.05;;;2.08;;
78406;SDS011;67692;51.074;-1.790;2023-08-21T01:58:09;6.65;;;1.90;;
78406;SDS011;67692;51.074;-1.790;2023-08-21T02:00:36;9.13;;;2.03;;
78406;SDS011;67692;51.074;-1.790;2023-08-21T02:03:03;7.50;;;2.08;;
78406;SDS011;67692;51.074;-1.790;2023-08-21T02:05:29;9.52;;;2.15;;
78406;SDS011;67692;51.074;-1.790;2023-08-21T02:07:56;7.75;;;2.03;;
78406;SDS011;67692;51.074;-1.790;2023-08-21T02:10:23;7.68;;;1.95;;
78406;SDS011;67692;51.074;-1.790;2023-08-21T02:12:49;9.38;;;2.30;;
78406;SDS011;67692;51.074;-1.790;2023-08-21T02:15:18;10.57;;;2.78;;
78406;SDS011;67692;51.074;-1.790;2023-08-21T02:17:47;7.70;;;2.63;;
78406;SDS011;67692;51.074;-1.790;2023-08-21T02:20:13;11.35;;;2.25;;
78406;SDS011;67692;51.074;-1.790;2023-08-21T02:22:40;8.20;;;2.30;;
78406;SDS011;67692;51.074;-1.790;2023-08-21T02:25:07;6.95;;;2.20;;
78406;SDS011;67692;51.074;-1.790;2023-08-21T02:27:34;6.75;;;2.20;;
78406;SDS011;67692;51.074;-1.790;2023-08-21T02:30:00;14.70;;;3.20;;
78406;SDS011;67692;51.074;-1.790;2023-08-21T02:32:28;7.80;;;2.22;;
78406;SDS011;67692;51.074;-1.790;2023-08-21T02:34:55;17.65;;;2.67;;
78406;SDS011;67692;51.074;-1.790;2023-08-21T02:37:21;13.30;;;2.40;;
78406;SDS011;67692;51.074;-1.790;2023-08-21T02:39:48;11.65;;;2.67;;
78406;SDS011;67692;51.074;-1.790;2023-08-21T02:42:14;6.07;;;2.20;;
78406;SDS011;67692;51.074;-1.790;2023-08-21T02:44:41;8.82;;;2.25;;
78406;SDS011;67692;51.074;-1.790;2023-08-21T02:47:07;7.75;;;2.65;;
78406;SDS011;67692;51.074;-1.790;2023-08-21T02:49:36;10.88;;;2.28;;
78406;SDS011;67692;51.074;-1.790;2023-08-21T02:52:02;10.82;;;1.98;;
78406;SDS011;67692;51.074;-1.790;2023-08-21T02:54:29;8.07;;;2.00;;
78406;SDS011;67692;51.074;-1.790;2023-08-21T02:56:56;5.40;;;2.00;;
78406;SDS011;67692;51.074;-1.790;2023-08-21T02:59:22;7.57;;;1.85;;
78406;SDS011;67692;51.074;-1.790;2023-08-21T03:01:49;7.72;;;1.77;;
78406;SDS011;67692;51.074;-1.790;2023-08-21T03:04:15;11.95;;;2.15;;
78406;SDS011;67692;51.074;-1.790;2023-08-21T03:06:43;9.00;;;2.33;;
78406;SDS011;67692;51.074;-1.790;2023-08-21T03:09:10;9.45;;;1.80;;
78406;SDS011;67692;51.074;-1.790;2023-08-21T03:11:37;10.02;;;1.73;;
78406;SDS011;67692;51.074;-1.790;2023-08-21T03:14:03;10.43;;;2.08;;
78406;SDS011;67692;51.074;-1.790;2023-08-21T03:16:30;6.75;;;1.50;;
78406;SDS011;67692;51.074;-1.790;2023-08-21T03:18:57;9.45;;;1.83;;
78406;SDS011;67692;51.074;-1.790;2023-08-21T03:21:24;6.78;;;1.48;;
78406;SDS011;67692;51.074;-1.790;2023-08-21T03:23:53;8.10;;;2.10;;
78406;SDS011;67692;51.074;-1.790;2023-08-21T03:26:21;6.00;;;1.80;;
78406;SDS011;67692;51.074;-1.790;2023-08-21T03:28:48;7.95;;;1.80;;
78406;SDS011;67692;51.074;-1.790;2023-08-21T03:31:15;9.57;;;1.80;;
78406;SDS011;67692;51.074;-1.790;2023-08-21T03:33:41;7.18;;;1.65;;
78406;SDS011;67692;51.074;-1.790;2023-08-21T03:36:08;7.03;;;1.48;;
78406;SDS011;67692;51.074;-1.790;2023-08-21T03:38:35;8.43;;;1.75;;
78406;SDS011;67692;51.074;-1.790;2023-08-21T03:41:03;7.07;;;1.48;;
78406;SDS011;67692;51.074;-1.790;2023-08-21T03:43:30;7.78;;;2.30;;
78406;SDS011;67692;51.074;-1.790;2023-08-21T03:45:56;11.00;;;2.15;;
78406;SDS011;67692;51.074;-1.790;2023-08-21T03:48:23;8.32;;;1.85;;
78406;SDS011;67692;51.074;-1.790;2023-08-21T03:50:50;8.52;;;1.70;;
78406;SDS011;67692;51.074;-1.790;2023-08-21T03:53:17;8.93;;;1.98;;
78406;SDS011;67692;51.074;-1.790;2023-08-21T03:55:44;10.25;;;1.63;;
78406;SDS011;67692;51.074;-1.790;2023-08-21T03:58:12;9.27;;;1.63;;
78406;SDS011;67692;51.074;-1.790;2023-08-21T04:00:39;7.28;;;1.45;;
78406;SDS011;67692;51.074;-1.790;2023-08-21T04:03:06;7.18;;;1.95;;
78406;SDS011;67692;51.074;-1.790;2023-08-21T04:05:33;7.05;;;1.42;;
78406;SDS011;67692;51.074;-1.790;2023-08-21T04:07:59;10.10;;;1.90;;
78406;SDS011;67692;51.074;-1.790;2023-08-21T04:10:26;6.43;;;1.63;;
78406;SDS011;67692;51.074;-1.790;2023-08-21T04:12:52;5.53;;;1.10;;
78406;SDS011;67692;51.074;-1.790;2023-08-21T04:15:20;9.40;;;1.77;;
78406;SDS011;67692;51.074;-1.790;2023-08-21T04:17:47;6.28;;;1.30;;
78406;SDS011;67692;51.074;-1.790;2023-08-21T04:20:13;6.30;;;1.27;;
78406;SDS011;67692;51.074;-1.790;2023-08-21T04:22:40;10.02;;;1.77;;
78406;SDS011;67692;51.074;-1.790;2023-08-21T04:25:07;8.07;;;1.70;;
78406;SDS011;67692;51.074;-1.790;2023-08-21T04:27:34;7.97;;;1.63;;
78406;SDS011;67692;51.074;-1.790;2023-08-21T04:30:01;9.88;;;1.70;;
78406;SDS011;67692;51.074;-1.790;2023-08-21T04:32:30;5.38;;;1.40;;
78406;SDS011;67692;51.074;-1.790;2023-08-21T04:34:56;8.15;;;1.77;;
78406;SDS011;67692;51.074;-1.790;2023-08-21T04:37:23;4.97;;;1.30;;
78406;SDS011;67692;51.074;-1.790;2023-08-21T04:39:50;6.90;;;1.42;;
78406;SDS011;67692;51.074;-1.790;2023-08-21T04:42:16;7.05;;;2.10;;
78406;SDS011;67692;51.074;-1.790;2023-08-21T04:44:43;4.80;;;2.38;;
78406;SDS011;67692;51.074;-1.790;2023-08-21T04:47:19;7.55;;;1.27;;
78406;SDS011;67692;51.074;-1.790;2023-08-21T04:49:49;5.63;;;1.30;;
78406;SDS011;67692;51.074;-1.790;2023-08-21T04:52:16;7.25;;;1.25;;
78406;SDS011;67692;51.074;-1.790;2023-08-21T04:54:42;4.10;;;1.08;;
78406;SDS011;67692;51.074;-1.790;2023-08-21T04:57:09;4.80;;;1.90;;
78406;SDS011;67692;51.074;-1.790;2023-08-21T04:59:36;6.20;;;1.27;;
78406;SDS011;67692;51.074;-1.790;2023-08-21T05:02:02;7.55;;;1.55;;
78406;SDS011;67692;51.074;-1.790;2023-08-21T05:04:29;3.88;;;1.55;;
78406;SDS011;67692;51.074;-1.790;2023-08-21T05:06:57;7.00;;;1.65;;
78406;SDS011;67692;51.074;-1.790;2023-08-21T05:09:24;4.55;;;1.15;;
78406;SDS011;67692;51.074;-1.790;2023-08-21T05:11:50;5.28;;;1.63;;
78406;SDS011;67692;51.074;-1.790;2023-08-21T05:14:17;7.65;;;1.80;;
78406;SDS011;67692;51.074;-1.790;2023-08-21T05:16:44;5.32;;;1.25;;
78406;SDS011;67692;51.074;-1.790;2023-08-21T05:19:11;6.75;;;1.10;;
78406;SDS011;67692;51.074;-1.790;2023-08-21T05:21:37;6.20;;;1.38;;
78406;SDS011;67692;51.074;-1.790;2023-08-21T05:24:06;5.25;;;1.48;;
78406;SDS011;67692;51.074;-1.790;2023-08-21T05:26:32;3.80;;;1.15;;
78406;SDS011;67692;51.074;-1.790;2023-08-21T05:28:59;4.35;;;1.27;;
78406;SDS011;67692;51.074;-1.790;2023-08-21T05:31:25;7.18;;;2.47;;
78406;SDS011;67692;51.074;-1.790;2023-08-21T05:33:52;5.20;;;1.23;;
78406;SDS011;67692;51.074;-1.790;2023-08-21T05:36:19;7.40;;;1.77;;
78406;SDS011;67692;51.074;-1.790;2023-08-21T05:38:45;8.95;;;1.40;;
78406;SDS011;67692;51.074;-1.790;2023-08-21T05:41:14;8.13;;;1.52;;
78406;SDS011;67692;51.074;-1.790;2023-08-21T05:43:41;6.40;;;2.10;;
78406;SDS011;67692;51.074;-1.790;2023-08-21T05:46:07;7.40;;;1.55;;
78406;SDS011;67692;51.074;-1.790;2023-08-21T05:48:34;6.55;;;1.63;;
78406;SDS011;67692;51.074;-1.790;2023-08-21T05:51:01;6.38;;;1.48;;
78406;SDS011;67692;51.074;-1.790;2023-08-21T05:53:28;9.23;;;1.77;;
78406;SDS011;67692;51.074;-1.790;2023-08-21T05:55:55;5.50;;;1.35;;
78406;SDS011;67692;51.074;-1.790;2023-08-21T05:58:23;8.18;;;1.48;;
78406;SDS011;67692;51.074;-1.790;2023-08-21T06:00:54;9.88;;;1.65;;
78406;SDS011;67692;51.074;-1.790;2023-08-21T06:03:21;8.68;;;1.58;;
78406;SDS011;67692;51.074;-1.790;2023-08-21T06:05:47;7.07;;;1.20;;
78406;SDS011;67692;51.074;-1.790;2023-08-21T06:08:14;12.07;;;2.13;;
78406;SDS011;67692;51.074;-1.790;2023-08-21T06:10:40;5.50;;;1.70;;
78406;SDS011;67692;51.074;-1.790;2023-08-21T06:13:07;10.30;;;1.90;;
78406;SDS011;67692;51.074;-1.790;2023-08-21T06:15:35;4.35;;;1.40;;
78406;SDS011;67692;51.074;-1.790;2023-08-21T06:18:02;10.43;;;1.73;;
78406;SDS011;67692;51.074;-1.790;2023-08-21T06:20:29;5.25;;;1.25;;
78406;SDS011;67692;51.074;-1.790;2023-08-21T06:22:56;8.70;;;1.40;;
78406;SDS011;67692;51.074;-1.790;2023-08-21T06:25:23;6.70;;;1.20;;
78406;SDS011;67692;51.074;-1.790;2023-08-21T06:27:50;7.97;;;1.75;;
78406;SDS011;67692;51.074;-1.790;2023-08-21T06:30:16;5.05;;;1.40;;
78406;SDS011;67692;51.074;-1.790;2023-08-21T06:32:44;6.22;;;1.40;;
78406;SDS011;67692;51.074;-1.790;2023-08-21T06:35:11;8.40;;;1.58;;
78406;SDS011;67692;51.074;-1.790;2023-08-21T06:37:39;6.65;;;1.50;;
78406;SDS011;67692;51.074;-1.790;2023-08-21T06:40:06;12.38;;;1.75;;
78406;SDS011;67692;51.074;-1.790;2023-08-21T06:42:33;6.47;;;1.30;;
78406;SDS011;67692;51.074;-1.790;2023-08-21T06:45:00;7.88;;;1.90;;
78406;SDS011;67692;51.074;-1.790;2023-08-21T06:47:26;6.63;;;1.50;;
78406;SDS011;67692;51.074;-1.790;2023-08-21T06:49:54;7.00;;;1.60;;
78406;SDS011;67692;51.074;-1.790;2023-08-21T06:52:21;7.40;;;1.60;;
78406;SDS011;67692;51.074;-1.790;2023-08-21T06:54:48;3.65;;;0.98;;
78406;SDS011;67692;51.074;-1.790;2023-08-21T06:57:15;5.80;;;1.25;;
78406;SDS011;67692;51.074;-1.790;2023-08-21T06:59:42;7.97;;;1.35;;
78406;SDS011;67692;51.074;-1.790;2023-08-21T07:02:08;4.68;;;1.40;;
78406;SDS011;67692;51.074;-1.790;2023-08-21T07:04:35;4.65;;;1.10;;
78406;SDS011;67692;51.074;-1.790;2023-08-21T07:07:03;11.20;;;1.40;;
78406;SDS011;67692;51.074;-1.790;2023-08-21T07:09:30;4.60;;;1.38;;
78406;SDS011;67692;51.074;-1.790;2023-08-21T07:11:57;7.22;;;1.10;;
78406;SDS011;67692;51.074;-1.790;2023-08-21T07:14:23;4.07;;;1.13;;
78406;SDS011;67692;51.074;-1.790;2023-08-21T07:16:50;7.53;;;1.52;;
78406;SDS011;67692;51.074;-1.790;2023-08-21T07:19:17;4.97;;;1.20;;
78406;SDS011;67692;51.074;-1.790;2023-08-21T07:21:43;4.57;;;0.93;;
78406;SDS011;67692;51.074;-1.790;2023-08-21T07:24:11;8.65;;;1.30;;
78406;SDS011;67692;51.074;-1.790;2023-08-21T07:26:38;3.28;;;1.00;;
78406;SDS011;67692;51.074;-1.790;2023-08-21T07:29:05;5.93;;;1.05;;
78406;SDS011;67692;51.074;-1.790;2023-08-21T07:31:32;3.97;;;1.10;;
78406;SDS011;67692;51.074;-1.790;2023-08-21T07:33:59;5.15;;;1.05;;
78406;SDS011;67692;51.074;-1.790;2023-08-21T07:36:26;3.60;;;0.82;;
78406;SDS011;67692;51.074;-1.790;2023-08-21T07:38:52;3.00;;;0.82;;
78406;SDS011;67692;51.074;-1.790;2023-08-21T07:41:20;3.83;;;1.00;;
78406;SDS011;67692;51.074;-1.790;2023-08-21T07:43:47;4.68;;;1.00;;
78406;SDS011;67692;51.074;-1.790;2023-08-21T07:46:14;3.80;;;1.00;;
78406;SDS011;67692;51.074;-1.790;2023-08-21T07:48:43;5.35;;;1.15;;
78406;SDS011;67692;51.074;-1.790;2023-08-21T07:51:10;4.45;;;1.08;;
78406;SDS011;67692;51.074;-1.790;2023-08-21T07:53:37;7.72;;;1.05;;
78406;SDS011;67692;51.074;-1.790;2023-08-21T07:56:04;4.38;;;0.98;;
78406;SDS011;67692;51.074;-1.790;2023-08-21T07:58:32;4.68;;;0.95;;
78406;SDS011;67692;51.074;-1.790;2023-08-21T08:00:59;2.38;;;0.70;;
78406;SDS011;67692;51.074;-1.790;2023-08-21T08:03:26;5.30;;;0.80;;
78406;SDS011;67692;51.074;-1.790;2023-08-21T08:05:53;5.22;;;1.00;;
78406;SDS011;67692;51.074;-1.790;2023-08-21T08:08:19;6.38;;;1.15;;
78406;SDS011;67692;51.074;-1.790;2023-08-21T08:10:46;6.65;;;0.90;;
78406;SDS011;67692;51.074;-1.790;2023-08-21T08:13:12;5.57;;;0.80;;
78406;SDS011;67692;51.074;-1.790;2023-08-21T08:15:40;2.10;;;0.68;;
78406;SDS011;67692;51.074;-1.790;2023-08-21T08:18:10;3.58;;;0.88;;
78406;SDS011;67692;51.074;-1.790;2023-08-21T08:20:37;5.80;;;1.20;;
78406;SDS011;67692;51.074;-1.790;2023-08-21T08:23:04;6.47;;;1.27;;
78406;SDS011;67692;51.074;-1.790;2023-08-21T08:25:30;2.38;;;0.82;;
78406;SDS011;67692;51.074;-1.790;2023-08-21T08:27:58;5.85;;;1.00;;
78406;SDS011;67692;51.074;-1.790;2023-08-21T08:30:25;3.47;;;1.60;;
78406;SDS011;67692;51.074;-1.790;2023-08-21T08:32:53;2.45;;;0.95;;
78406;SDS011;67692;51.074;-1.790;2023-08-21T08:35:19;5.53;;;0.90;;
78406;SDS011;67692;51.074;-1.790;2023-08-21T08:37:46;2.35;;;1.00;;
78406;SDS011;67692;51.074;-1.790;2023-08-21T08:40:12;4.57;;;1.13;;
78406;SDS011;67692;51.074;-1.790;2023-08-21T08:42:39;9.48;;;1.50;;
78406;SDS011;67692;51.074;-1.790;2023-08-21T08:45:06;1.45;;;0.70;;
78406;SDS011;67692;51.074;-1.790;2023-08-21T08:47:33;4.35;;;0.90;;
78406;SDS011;67692;51.074;-1.790;2023-08-21T08:50:02;2.78;;;0.80;;
78406;SDS011;67692;51.074;-1.790;2023-08-21T08:52:31;2.10;;;0.90;;
78406;SDS011;67692;51.074;-1.790;2023-08-21T08:55:01;1.92;;;0.80;;
78406;SDS011;67692;51.074;-1.790;2023-08-21T08:57:28;7.85;;;1.13;;
78406;SDS011;67692;51.074;-1.790;2023-08-21T08:59:55;5.43;;;1.20;;
78406;SDS011;67692;51.074;-1.790;2023-08-21T09:02:23;7.40;;;1.27;;
78406;SDS011;67692;51.074;-1.790;2023-08-21T09:04:51;3.85;;;1.10;;
78406;SDS011;67692;51.074;-1.790;2023-08-21T09:07:19;8.73;;;1.00;;
78406;SDS011;67692;51.074;-1.790;2023-08-21T09:09:47;2.83;;;0.95;;
78406;SDS011;67692;51.074;-1.790;2023-08-21T09:12:16;6.55;;;1.08;;
78406;SDS011;67692;51.074;-1.790;2023-08-21T09:14:44;6.00;;;1.30;;
78406;SDS011;67692;51.074;-1.790;2023-08-21T09:17:11;4.93;;;1.10;;
78406;SDS011;67692;51.074;-1.790;2023-08-21T09:19:38;4.63;;;1.10;;
78406;SDS011;67692;51.074;-1.790;2023-08-21T09:22:08;5.32;;;1.10;;
78406;SDS011;67692;51.074;-1.790;2023-08-21T09:24:37;6.30;;;1.30;;
78406;SDS011;67692;51.074;-1.790;2023-08-21T09:27:04;4.95;;;1.27;;
78406;SDS011;67692;51.074;-1.790;2023-08-21T09:29:39;4.93;;;0.75;;
78406;SDS011;67692;51.074;-1.790;2023-08-21T09:32:06;3.58;;;0.90;;
78406;SDS011;67692;51.074;-1.790;2023-08-21T09:34:33;7.05;;;1.25;;
78406;SDS011;67692;51.074;-1.790;2023-08-21T09:37:01;3.40;;;1.10;;
78406;SDS011;67692;51.074;-1.790;2023-08-21T09:39:32;3.70;;;0.70;;
78406;SDS011;67692;51.074;-1.790;2023-08-21T09:42:01;3.95;;;0.90;;
78406;SDS011;67692;51.074;-1.790;2023-08-21T09:44:34;3.67;;;1.42;;
78406;SDS011;67692;51.074;-1.790;2023-08-21T09:47:02;4.35;;;0.80;;
78406;SDS011;67692;51.074;-1.790;2023-08-21T09:49:29;4.03;;;0.90;;
78406;SDS011;67692;51.074;-1.790;2023-08-21T09:51:56;2.67;;;0.90;;
78406;SDS011;67692;51.074;-1.790;2023-08-21T09:54:27;2.38;;;0.80;;
78406;SDS011;67692;51.074;-1.790;2023-08-21T09:56:56;4.65;;;1.27;;
78406;SDS011;67692;51.074;-1.790;2023-08-21T09:59:25;3.17;;;0.90;;
78406;SDS011;67692;51.074;-1.790;2023-08-21T10:01:53;4.18;;;1.00;;
78406;SDS011;67692;51.074;-1.790;2023-08-21T10:04:20;4.28;;;0.90;;
78406;SDS011;67692;51.074;-1.790;2023-08-21T10:06:49;2.28;;;0.80;;
78406;SDS011;67692;51.074;-1.790;2023-08-21T10:09:18;3.50;;;0.90;;
78406;SDS011;67692;51.074;-1.790;2023-08-21T10:11:47;3.47;;;0.73;;
78406;SDS011;67692;51.074;-1.790;2023-08-21T10:14:15;3.33;;;1.23;;
78406;SDS011;67692;51.074;-1.790;2023-08-21T10:16:43;4.57;;;1.05;;
78406;SDS011;67692;51.074;-1.790;2023-08-21T10:19:12;3.60;;;0.90;;
78406;SDS011;67692;51.074;-1.790;2023-08-21T10:21:40;3.80;;;1.00;;
78406;SDS011;67692;51.074;-1.790;2023-08-21T10:24:07;4.28;;;0.98;;
78406;SDS011;67692;51.074;-1.790;2023-08-21T10:26:37;2.92;;;1.00;;
78406;SDS011;67692;51.074;-1.790;2023-08-21T10:29:05;2.63;;;1.13;;
78406;SDS011;67692;51.074;-1.790;2023-08-21T10:31:33;5.40;;;1.30;;
78406;SDS011;67692;51.074;-1.790;2023-08-21T10:34:02;2.50;;;0.85;;
78406;SDS011;67692;51.074;-1.790;2023-08-21T10:36:39;5.22;;;1.13;;
78406;SDS011;67692;51.074;-1.790;2023-08-21T10:39:27;5.53;;;1.10;;
78406;SDS011;67692;51.074;-1.790;2023-08-21T10:47:21;4.55;;;1.20;;
78406;SDS011;67692;51.074;-1.790;2023-08-21T10:49:51;6.82;;;1.00;;
78406;SDS011;67692;51.074;-1.790;2023-08-21T10:52:23;5.03;;;0.98;;
78406;SDS011;67692;51.074;-1.790;2023-08-21T10:54:51;9.52;;;1.13;;
78406;SDS011;67692;51.074;-1.790;2023-08-21T10:57:19;5.22;;;0.85;;
78406;SDS011;67692;51.074;-1.790;2023-08-21T10:59:49;2.88;;;1.00;;
78406;SDS011;67692;51.074;-1.790;2023-08-21T11:02:17;3.00;;;0.85;;
78406;SDS011;67692;51.074;-1.790;2023-08-21T11:04:44;3.83;;;0.80;;
78406;SDS011;67692;51.074;-1.790;2023-08-21T11:07:12;4.47;;;1.30;;
78406;SDS011;67692;51.074;-1.790;2023-08-21T11:09:39;3.90;;;0.85;;
78406;SDS011;67692;51.074;-1.790;2023-08-21T11:12:06;3.13;;;0.93;;
78406;SDS011;67692;51.074;-1.790;2023-08-21T11:14:34;7.32;;;1.33;;
78406;SDS011;67692;51.074;-1.790;2023-08-21T11:17:01;6.38;;;1.20;;
78406;SDS011;67692;51.074;-1.790;2023-08-21T11:19:29;6.47;;;1.00;;
78406;SDS011;67692;51.074;-1.790;2023-08-21T11:21:56;6.35;;;1.00;;
78406;SDS011;67692;51.074;-1.790;2023-08-21T11:24:30;4.35;;;1.05;;
78406;SDS011;67692;51.074;-1.790;2023-08-21T11:26:57;4.03;;;1.10;;
78406;SDS011;67692;51.074;-1.790;2023-08-21T11:31:51;3.13;;;1.15;;
78406;SDS011;67692;51.074;-1.790;2023-08-21T11:34:18;3.30;;;0.70;;
78406;SDS011;67692;51.074;-1.790;2023-08-21T11:36:45;2.97;;;0.75;;
78406;SDS011;67692;51.074;-1.790;2023-08-21T11:39:11;3.17;;;1.08;;
78406;SDS011;67692;51.074;-1.790;2023-08-21T11:44:22;5.82;;;1.30;;
78406;SDS011;67692;51.074;-1.790;2023-08-21T11:46:50;2.95;;;0.90;;
78406;SDS011;67692;51.074;-1.790;2023-08-21T11:49:17;8.57;;;1.08;;
78406;SDS011;67692;51.074;-1.790;2023-08-21T11:51:47;5.53;;;1.27;;
78406;SDS011;67692;51.074;-1.790;2023-08-21T11:54:14;4.30;;;1.23;;
78406;SDS011;67692;51.074;-1.790;2023-08-21T11:56:43;8.13;;;1.15;;
78406;SDS011;67692;51.074;-1.790;2023-08-21T11:59:11;3.13;;;1.00;;
78406;SDS011;67692;51.074;-1.790;2023-08-21T12:01:49;6.05;;;1.35;;
78406;SDS011;67692;51.074;-1.790;2023-08-21T12:04:16;6.03;;;1.42;;
78406;SDS011;67692;51.074;-1.790;2023-08-21T12:06:43;3.88;;;1.40;;
78406;SDS011;67692;51.074;-1.790;2023-08-21T12:09:10;4.60;;;1.30;;
78406;SDS011;67692;51.074;-1.790;2023-08-21T12:11:37;5.80;;;1.10;;
78406;SDS011;67692;51.074;-1.790;2023-08-21T12:14:04;6.40;;;0.95;;
78406;SDS011;67692;51.074;-1.790;2023-08-21T12:16:32;2.13;;;0.88;;
78406;SDS011;67692;51.074;-1.790;2023-08-21T12:18:58;6.68;;;1.05;;
78406;SDS011;67692;51.074;-1.790;2023-08-21T12:21:25;4.85;;;1.17;;
78406;SDS011;67692;51.074;-1.790;2023-08-21T12:23:52;8.40;;;1.50;;
78406;SDS011;67692;51.074;-1.790;2023-08-21T12:26:19;5.03;;;1.35;;
78406;SDS011;67692;51.074;-1.790;2023-08-21T12:28:46;5.10;;;1.40;;
78406;SDS011;67692;51.074;-1.790;2023-08-21T12:31:13;3.45;;;1.60;;
78406;SDS011;67692;51.074;-1.790;2023-08-21T12:33:42;3.75;;;1.00;;
78406;SDS011;67692;51.074;-1.790;2023-08-21T12:36:08;2.15;;;0.73;;
78406;SDS011;67692;51.074;-1.790;2023-08-21T12:38:35;5.72;;;1.05;;
78406;SDS011;67692;51.074;-1.790;2023-08-21T12:41:01;4.70;;;1.02;;
78406;SDS011;67692;51.074;-1.790;2023-08-21T12:43:28;4.05;;;0.93;;
78406;SDS011;67692;51.074;-1.790;2023-08-21T12:45:56;3.17;;;0.90;;
78406;SDS011;67692;51.074;-1.790;2023-08-21T12:48:23;3.20;;;0.90;;
78406;SDS011;67692;51.074;-1.790;2023-08-21T12:50:51;5.18;;;1.20;;
78406;SDS011;67692;51.074;-1.790;2023-08-21T12:53:18;3.05;;;1.05;;
78406;SDS011;67692;51.074;-1.790;2023-08-21T12:55:44;4.00;;;1.10;;
78406;SDS011;67692;51.074;-1.790;2023-08-21T12:58:11;7.55;;;1.30;;
78406;SDS011;67692;51.074;-1.790;2023-08-21T13:00:38;2.38;;;0.80;;
78406;SDS011;67692;51.074;-1.790;2023-08-21T13:03:05;2.85;;;1.02;;
78406;SDS011;67692;51.074;-1.790;2023-08-21T13:05:32;2.83;;;0.60;;
78406;SDS011;67692;51.074;-1.790;2023-08-21T13:08:00;3.70;;;1.08;;
78406;SDS011;67692;51.074;-1.790;2023-08-21T13:10:27;3.53;;;0.82;;
78406;SDS011;67692;51.074;-1.790;2023-08-21T13:12:54;3.90;;;1.20;;
78406;SDS011;67692;51.074;-1.790;2023-08-21T13:15:20;2.67;;;0.65;;
78406;SDS011;67692;51.074;-1.790;2023-08-21T13:17:47;5.15;;;0.90;;
78406;SDS011;67692;51.074;-1.790;2023-08-21T13:20:13;4.50;;;0.90;;
78406;SDS011;67692;51.074;-1.790;2023-08-21T13:22:43;3.10;;;0.90;;
78406;SDS011;67692;51.074;-1.790;2023-08-21T13:25:12;2.63;;;0.73;;
78406;SDS011;67692;51.074;-1.790;2023-08-21T13:27:39;4.90;;;0.90;;
78406;SDS011;67692;51.074;-1.790;2023-08-21T13:30:06;2.92;;;0.70;;
78406;SDS011;67692;51.074;-1.790;2023-08-21T13:32:33;3.80;;;0.70;;
78406;SDS011;67692;51.074;-1.790;2023-08-21T13:35:00;3.05;;;0.75;;
78406;SDS011;67692;51.074;-1.790;2023-08-21T13:37:29;2.75;;;0.50;;
78406;SDS011;67692;51.074;-1.790;2023-08-21T13:39:56;5.20;;;0.70;;
78406;SDS011;67692;51.074;-1.790;2023-08-21T13:42:26;2.72;;;0.60;;
78406;SDS011;67692;51.074;-1.790;2023-08-21T13:44:55;6.95;;;0.68;;
78406;SDS011;67692;51.074;-1.790;2023-08-21T13:47:22;2.47;;;0.55;;
78406;SDS011;67692;51.074;-1.790;2023-08-21T13:49:49;3.13;;;0.60;;
78406;SDS011;67692;51.074;-1.790;2023-08-21T13:52:15;2.13;;;0.60;;
78406;SDS011;67692;51.074;-1.790;2023-08-21T13:54:42;2.30;;;0.63;;
78406;SDS011;67692;51.074;-1.790;2023-08-21T13:57:08;3.08;;;0.93;;
78406;SDS011;67692;51.074;-1.790;2023-08-21T13:59:36;5.53;;;0.80;;
78406;SDS011;67692;51.074;-1.790;2023-08-21T14:02:03;2.88;;;0.60;;
78406;SDS011;67692;51.074;-1.790;2023-08-21T14:04:31;2.33;;;0.57;;
78406;SDS011;67692;51.074;-1.790;2023-08-21T14:06:58;2.15;;;0.40;;
78406;SDS011;67692;51.074;-1.790;2023-08-21T14:09:25;1.60;;;0.55;;
78406;SDS011;67692;51.074;-1.790;2023-08-21T14:11:52;2.03;;;0.85;;
78406;SDS011;67692;51.074;-1.790;2023-08-21T14:14:18;5.18;;;0.70;;
78406;SDS011;67692;51.074;-1.790;2023-08-21T14:16:46;3.05;;;0.98;;
78406;SDS011;67692;51.074;-1.790;2023-08-21T14:19:13;5.30;;;0.88;;
78406;SDS011;67692;51.074;-1.790;2023-08-21T14:21:39;2.90;;;0.90;;
78406;SDS011;67692;51.074;-1.790;2023-08-21T14:24:06;2.72;;;0.77;;
78406;SDS011;67692;51.074;-1.790;2023-08-21T14:26:33;2.35;;;0.70;;
78406;SDS011;67692;51.074;-1.790;2023-08-21T14:28:59;3.55;;;0.70;;
78406;SDS011;67692;51.074;-1.790;2023-08-21T14:31:26;3.78;;;0.73;;
78406;SDS011;67692;51.074;-1.790;2023-08-21T14:33:54;2.63;;;0.90;;
78406;SDS011;67692;51.074;-1.790;2023-08-21T14:36:21;2.67;;;0.70;;
78406;SDS011;67692;51.074;-1.790;2023-08-21T14:38:47;4.47;;;0.80;;
78406;SDS011;67692;51.074;-1.790;2023-08-21T14:41:15;2.90;;;0.80;;
78406;SDS011;67692;51.074;-1.790;2023-08-21T14:43:42;2.20;;;0.70;;
78406;SDS011;67692;51.074;-1.790;2023-08-21T14:46:09;4.05;;;0.80;;